KFMY/FMY METAR and TAF weather

Enter ICAO airport designator
Station Type Date Time Source
KFMY METAR 2022/01/29 10:53 UTC NOAA

KFMY 291053Z AUTO 35013KT 10SM CLR 11/02 A3010 RMK AO2 SLP193 T01060017


Station Type Date Time Source
KFMY Decoded METAR 2022/01/29 10:53 UTC NOAA

FORT MYERS PAGE FIELD, FL, United States (KFMY) 26-35N 081-52W 4M
Jan 29, 2022 - 05:53 AM EST / 2022.01.29 1053 UTC
Wind: from the N (350 degrees) at 15 MPH (13 KT):0
Visibility: 10 mile(s):0
Sky conditions: clear
Temperature: 51.1 F (10.6 C)
Dew Point: 35.1 F (1.7 C)
Relative Humidity: 54%
Pressure (altimeter): 30.1 in. Hg (1019 hPa)
ob: KFMY 291053Z AUTO 35013KT 10SM CLR 11/02 A3010 RMK AO2 SLP193 T01060017
cycle: 11

Station Type Date Time Source
KFMY TAF 2022/01/29 10:33 UTC NOAA

TAF
AMD KFMY 290930Z 2910/3006 32015G24KT P6SM BKN050
FM291100 33016G25KT P6SM SCT200
FM291600 33017G24KT P6SM SKC
FM300100 34008KT P6SM SKC

Example: see airport list